Weather at Yuba Airport

Public forecast

Using degrees Fahrenheit for public forecast. Weather courtesy of forecast.io.

Closest aviation weather report (METAR) to Yuba Airport

Closest report is Cherry Capital Airport, 8.7 nm (16.1 km) SW. Retrieved 2022/01/19 19:53 UTC (11 minutes ago):

KTVC 191953Z 30019G25KT 6SM -SN FEW025 OVC035 M07/M12 A2999 RMK AO2 SLP164 P0000 T10671122

Closest aviation forecast (TAF) to Yuba Airport

Closest forecast is Cherry Capital Airport, 8.7 nm (16.1 km) SW. Retrieved 2022/01/19 18:30 UTC (2 hours ago):

TAF KTVC 191728Z 1918/2018 31016G27KT 4SM -SHSN SCT025 OVC035 TEMPO 1918/1922 1SM -SHSN BLSN BKN025 FM192200 32014G24KT 2SM -SHSN OVC025 FM200200 32011G20KT 4SM -SHSN OVC030 FM201500 32008KT 5SM -SHSN OVC035